createdAt,value
2023-05-19T00:01:17.574Z,9.49
2023-05-19T00:04:02.724Z,9.46
2023-05-19T00:06:33.132Z,9.40
2023-05-19T00:09:09.506Z,9.36
2023-05-19T00:11:40.018Z,9.33
2023-05-19T00:14:10.681Z,9.28
2023-05-19T00:16:39.460Z,9.21
2023-05-19T00:19:10.609Z,9.16
2023-05-19T00:21:39.241Z,9.11
2023-05-19T00:24:07.708Z,9.07
2023-05-19T00:26:36.105Z,9.05
2023-05-19T00:29:09.956Z,9.01
2023-05-19T00:31:39.201Z,9.00
2023-05-19T00:34:07.511Z,9.01
2023-05-19T00:36:38.129Z,8.97
2023-05-19T00:39:06.294Z,8.94
2023-05-19T00:41:34.822Z,8.89
2023-05-19T00:44:02.620Z,8.85
2023-05-19T00:46:31.032Z,8.81
2023-05-19T00:48:59.375Z,8.84
2023-05-19T00:51:29.771Z,8.80
2023-05-19T00:53:58.867Z,8.80
2023-05-19T00:56:28.024Z,8.77
2023-05-19T00:58:56.202Z,8.77
2023-05-19T01:01:26.919Z,8.74
2023-05-19T01:03:59.179Z,8.70
2023-05-19T01:06:27.906Z,8.66
2023-05-19T01:08:57.674Z,8.71
2023-05-19T01:11:25.469Z,8.66
2023-05-19T01:13:53.429Z,8.66
2023-05-19T01:16:41.528Z,8.60
2023-05-19T01:19:32.067Z,8.59
2023-05-19T01:22:28.486Z,8.54
2023-05-19T01:25:20.054Z,8.53
2023-05-19T01:27:48.144Z,8.49
2023-05-19T01:30:27.161Z,8.45
2023-05-19T01:33:04.721Z,8.43
2023-05-19T01:35:34.912Z,8.42
2023-05-19T01:38:03.818Z,8.37
2023-05-19T01:40:34.907Z,8.33
2023-05-19T01:43:03.815Z,8.35
2023-05-19T01:45:34.921Z,8.29
2023-05-19T01:48:09.240Z,8.25
2023-05-19T01:50:41.037Z,8.22
2023-05-19T01:53:09.578Z,8.19
2023-05-19T01:55:48.424Z,8.13
2023-05-19T01:58:37.751Z,8.10
2023-05-19T02:01:33.490Z,8.06
2023-05-19T02:04:19.853Z,8.05
2023-05-19T02:07:09.115Z,7.99
2023-05-19T02:10:09.260Z,8.01
2023-05-19T02:12:40.800Z,7.96
2023-05-19T02:15:26.054Z,7.95
2023-05-19T02:17:55.748Z,7.95
2023-05-19T02:20:23.706Z,7.92
2023-05-19T02:22:51.531Z,7.91
2023-05-19T02:25:19.451Z,7.95
2023-05-19T02:27:49.184Z,7.89
2023-05-19T02:30:17.111Z,7.84
2023-05-19T02:32:46.871Z,7.84
2023-05-19T02:35:15.750Z,7.77
2023-05-19T02:37:43.546Z,7.73
2023-05-19T02:40:11.415Z,7.68
2023-05-19T02:42:39.320Z,7.58
2023-05-19T02:45:07.586Z,7.56
2023-05-19T02:47:37.143Z,7.56
2023-05-19T02:50:07.298Z,7.60
2023-05-19T02:52:35.713Z,7.71
2023-05-19T02:55:03.593Z,7.71
2023-05-19T02:57:31.955Z,7.68
2023-05-19T02:59:59.956Z,7.68
2023-05-19T03:02:27.836Z,7.64
2023-05-19T03:04:55.690Z,7.60
2023-05-19T03:07:25.538Z,7.57
2023-05-19T03:09:53.419Z,7.56
2023-05-19T03:12:21.950Z,7.53
2023-05-19T03:14:50.114Z,7.58
2023-05-19T03:17:18.058Z,7.54
2023-05-19T03:19:45.847Z,7.50
2023-05-19T03:22:13.906Z,7.43
2023-05-19T03:24:42.266Z,7.36
2023-05-19T03:27:10.224Z,7.31
2023-05-19T03:29:38.313Z,7.29
2023-05-19T03:32:06.859Z,7.26
2023-05-19T03:34:37.125Z,7.24
2023-05-19T03:37:05.631Z,7.20
2023-05-19T03:39:34.958Z,7.18
2023-05-19T03:42:05.931Z,7.15
2023-05-19T03:44:33.792Z,7.16
2023-05-19T03:47:01.620Z,7.16
2023-05-19T03:49:47.918Z,7.23
2023-05-19T03:52:36.666Z,7.22
2023-05-19T03:55:14.831Z,7.22
2023-05-19T03:57:45.920Z,7.26
2023-05-19T04:00:14.193Z,7.26
2023-05-19T04:02:42.151Z,7.26
2023-05-19T04:05:10.676Z,7.27
2023-05-19T04:07:38.876Z,7.30
2023-05-19T04:10:07.694Z,7.33
2023-05-19T04:12:35.923Z,7.39
2023-05-19T04:15:03.977Z,7.40
2023-05-19T04:17:31.985Z,7.43
2023-05-19T04:20:00.154Z,7.43
2023-05-19T04:22:29.373Z,7.47
2023-05-19T04:24:57.088Z,7.48
2023-05-19T04:27:26.048Z,7.56
2023-05-19T04:29:54.784Z,7.56
2023-05-19T04:32:22.669Z,7.61
2023-05-19T04:34:52.546Z,7.64
2023-05-19T04:37:26.237Z,7.71
2023-05-19T04:39:54.365Z,7.73
2023-05-19T04:42:26.379Z,7.84
2023-05-19T04:44:56.576Z,7.91
2023-05-19T04:47:30.136Z,7.96
2023-05-19T04:50:00.849Z,8.05
2023-05-19T04:52:28.997Z,8.15
2023-05-19T04:54:56.851Z,8.22
2023-05-19T04:57:25.759Z,8.35
2023-05-19T04:59:59.890Z,8.46
2023-05-19T05:02:34.028Z,8.60
2023-05-19T05:05:02.691Z,8.83
2023-05-19T05:07:32.496Z,8.98
2023-05-19T05:10:00.816Z,9.18
2023-05-19T05:12:29.626Z,9.33
2023-05-19T05:14:57.880Z,9.50
2023-05-19T05:17:28.346Z,9.72
2023-05-19T05:19:56.389Z,9.87
2023-05-19T05:22:24.590Z,9.95
2023-05-19T05:24:54.247Z,10.07
2023-05-19T05:27:22.425Z,10.12
2023-05-19T05:29:51.680Z,10.15
2023-05-19T05:32:20.809Z,10.24
2023-05-19T05:34:49.876Z,10.28
2023-05-19T05:37:18.124Z,10.27
2023-05-19T05:39:45.869Z,10.28
2023-05-19T05:42:14.865Z,10.34
2023-05-19T05:44:42.981Z,10.39
2023-05-19T05:47:12.320Z,10.41
2023-05-19T05:49:40.514Z,10.46
2023-05-19T05:52:11.341Z,10.60
2023-05-19T05:54:44.291Z,10.77
2023-05-19T05:57:14.497Z,10.89
2023-05-19T05:59:45.530Z,11.06
2023-05-19T06:02:14.034Z,11.08
2023-05-19T06:04:41.932Z,11.21
2023-05-19T06:07:09.951Z,11.35
2023-05-19T06:09:39.564Z,11.41
2023-05-19T06:12:08.981Z,11.65
2023-05-19T06:14:45.044Z,11.74
2023-05-19T06:17:18.561Z,11.87
2023-05-19T06:19:46.325Z,11.93
2023-05-19T06:22:14.540Z,11.99
2023-05-19T06:24:42.575Z,12.10
2023-05-19T06:27:11.217Z,12.19
2023-05-19T06:29:39.269Z,12.32
2023-05-19T06:32:09.168Z,12.41
2023-05-19T06:34:38.472Z,12.51
2023-05-19T06:37:06.283Z,12.61
2023-05-19T06:39:36.330Z,12.82
2023-05-19T06:42:04.822Z,13.02
2023-05-19T06:44:58.521Z,13.06
2023-05-19T06:47:27.456Z,13.26
2023-05-19T06:49:55.674Z,13.36
2023-05-19T06:52:27.468Z,13.61
2023-05-19T06:54:56.005Z,13.80
2023-05-19T06:57:23.783Z,13.78
2023-05-19T06:59:52.240Z,13.82
2023-05-19T07:02:20.363Z,14.00
2023-05-19T07:04:49.096Z,14.12
2023-05-19T07:07:20.991Z,14.25
2023-05-19T07:09:48.896Z,14.46
2023-05-19T07:12:16.675Z,14.77
2023-05-19T07:14:44.762Z,14.91
2023-05-19T07:17:13.407Z,15.01
2023-05-19T07:19:45.558Z,15.05
2023-05-19T07:22:13.345Z,15.18
2023-05-19T07:24:41.113Z,15.39
2023-05-19T07:27:09.612Z,15.66
2023-05-19T07:29:37.658Z,16.02
2023-05-19T07:32:06.086Z,15.79
2023-05-19T07:34:34.132Z,15.78
2023-05-19T07:37:02.185Z,16.03
2023-05-19T07:39:32.393Z,15.99
2023-05-19T07:42:00.346Z,16.09
2023-05-19T07:44:28.261Z,16.27
2023-05-19T07:46:56.400Z,16.38
2023-05-19T07:49:24.326Z,16.51
2023-05-19T07:51:52.287Z,16.48
2023-05-19T07:54:20.903Z,16.51
2023-05-19T07:56:48.602Z,16.57
2023-05-19T07:59:17.682Z,16.68
2023-05-19T08:01:45.798Z,16.78
2023-05-19T08:04:14.223Z,16.98
2023-05-19T08:06:44.368Z,17.07
2023-05-19T08:09:12.616Z,17.15
2023-05-19T08:11:40.409Z,17.15
2023-05-19T08:14:08.338Z,17.10
2023-05-19T08:16:36.211Z,17.22
2023-05-19T08:19:05.635Z,17.53
2023-05-19T08:21:34.752Z,17.68
2023-05-19T08:24:02.765Z,17.89
2023-05-19T08:26:30.837Z,18.04
2023-05-19T08:28:58.582Z,18.17
2023-05-19T08:31:26.430Z,18.30
2023-05-19T08:33:54.307Z,18.33
2023-05-19T08:36:23.260Z,18.49
2023-05-19T08:38:50.962Z,18.52
2023-05-19T08:41:19.224Z,18.54
2023-05-19T08:43:47.004Z,18.83
2023-05-19T08:46:16.942Z,18.84
2023-05-19T08:48:48.138Z,18.88
2023-05-19T08:51:32.070Z,18.84
2023-05-19T08:54:14.691Z,18.88
2023-05-19T08:56:45.178Z,18.95
2023-05-19T08:59:17.566Z,18.87
2023-05-19T09:01:47.131Z,18.97
2023-05-19T09:04:16.016Z,18.91
2023-05-19T09:06:45.492Z,19.04
2023-05-19T09:09:13.635Z,18.92
2023-05-19T09:11:41.865Z,19.21
2023-05-19T09:14:09.732Z,19.45
2023-05-19T09:16:37.753Z,19.56
2023-05-19T09:19:07.317Z,19.52
2023-05-19T09:21:35.927Z,19.66
2023-05-19T09:24:08.523Z,19.91
2023-05-19T09:26:43.276Z,20.04
2023-05-19T09:29:17.600Z,20.08
2023-05-19T09:31:52.213Z,19.83
2023-05-19T09:34:25.130Z,20.16
2023-05-19T09:36:54.227Z,19.87
2023-05-19T09:39:25.272Z,20.25
2023-05-19T09:41:54.555Z,20.59
2023-05-19T09:44:32.962Z,20.29
2023-05-19T09:47:00.778Z,20.06
2023-05-19T09:49:30.321Z,19.93
2023-05-19T09:51:59.608Z,20.14
2023-05-19T09:54:28.606Z,20.80
2023-05-19T09:57:05.243Z,20.68
2023-05-19T09:59:34.919Z,20.51
2023-05-19T10:02:06.272Z,20.69
2023-05-19T10:04:36.693Z,21.31
2023-05-19T10:07:07.382Z,21.51
2023-05-19T10:09:36.735Z,21.57
2023-05-19T10:12:05.898Z,21.17
2023-05-19T10:14:34.213Z,21.59
2023-05-19T10:17:01.997Z,21.98
2023-05-19T10:19:30.311Z,22.09
2023-05-19T10:21:58.170Z,22.47
2023-05-19T10:24:26.934Z,22.28
2023-05-19T10:27:02.436Z,22.24
2023-05-19T10:29:34.935Z,22.53
2023-05-19T10:32:15.520Z,22.53
2023-05-19T10:35:16.187Z,22.67
2023-05-19T10:38:03.546Z,22.06
2023-05-19T10:40:53.469Z,22.40
2023-05-19T10:43:46.255Z,23.19
2023-05-19T10:46:14.427Z,23.45
2023-05-19T10:48:46.833Z,23.52
2023-05-19T10:51:16.576Z,23.52
2023-05-19T10:53:49.989Z,23.45
2023-05-19T10:56:35.000Z,22.83
2023-05-19T10:59:04.524Z,22.90
2023-05-19T11:01:34.631Z,22.70
2023-05-19T11:04:10.676Z,22.35
2023-05-19T11:06:40.508Z,22.49
2023-05-19T11:09:20.913Z,23.20
2023-05-19T11:11:55.643Z,23.38
2023-05-19T11:14:31.800Z,23.67
2023-05-19T11:17:01.088Z,23.70
2023-05-19T11:19:53.915Z,23.07
2023-05-19T11:22:26.598Z,23.39
2023-05-19T11:24:58.242Z,23.65
2023-05-19T11:27:34.551Z,23.88
2023-05-19T11:30:14.701Z,24.08
2023-05-19T11:32:44.381Z,24.48
2023-05-19T11:35:12.565Z,24.62
2023-05-19T11:37:42.827Z,24.84
2023-05-19T11:40:11.021Z,24.80
2023-05-19T11:42:38.929Z,24.58
2023-05-19T11:45:07.784Z,25.06
2023-05-19T11:47:51.663Z,25.26
2023-05-19T11:50:24.471Z,24.56
2023-05-19T11:52:53.083Z,24.90
2023-05-19T11:55:22.734Z,25.24
2023-05-19T11:58:05.583Z,25.58
2023-05-19T12:00:41.669Z,25.82
2023-05-19T12:03:10.665Z,25.23
2023-05-19T12:05:48.231Z,24.87
2023-05-19T12:08:21.785Z,24.55
2023-05-19T12:10:53.274Z,25.03
2023-05-19T12:13:22.792Z,25.65
2023-05-19T12:15:53.242Z,25.78
2023-05-19T12:18:21.548Z,25.52
2023-05-19T12:20:49.736Z,25.74
2023-05-19T12:23:17.860Z,25.42
2023-05-19T12:25:46.117Z,25.47
2023-05-19T12:28:13.993Z,24.89
2023-05-19T12:30:47.451Z,25.04
2023-05-19T12:33:16.652Z,25.03
2023-05-19T12:35:44.727Z,25.45
2023-05-19T12:38:14.256Z,25.49
2023-05-19T12:40:43.037Z,26.20
2023-05-19T12:43:21.045Z,26.99
2023-05-19T12:45:49.382Z,27.12
2023-05-19T12:48:17.274Z,26.84
2023-05-19T12:50:45.854Z,25.44
2023-05-19T12:53:16.352Z,25.55
2023-05-19T12:55:46.024Z,26.06
2023-05-19T12:58:16.685Z,25.72
2023-05-19T13:00:47.526Z,25.84
2023-05-19T13:03:18.022Z,25.92
2023-05-19T13:05:48.743Z,25.31
2023-05-19T13:08:24.283Z,25.17
2023-05-19T13:10:52.182Z,25.51
2023-05-19T13:13:19.967Z,25.27
2023-05-19T13:15:49.179Z,24.79
2023-05-19T13:18:17.969Z,24.80
2023-05-19T13:20:47.612Z,25.30
2023-05-19T13:23:16.054Z,25.62
2023-05-19T13:25:47.247Z,26.05
2023-05-19T13:28:15.302Z,26.02
2023-05-19T13:30:45.223Z,26.15
2023-05-19T13:33:13.228Z,26.22
2023-05-19T13:35:41.195Z,26.33
2023-05-19T13:38:10.851Z,26.44
2023-05-19T13:40:39.915Z,26.70
2023-05-19T13:43:08.853Z,26.68
2023-05-19T13:45:37.366Z,25.64
2023-05-19T13:48:07.367Z,24.75
2023-05-19T13:50:35.937Z,25.11
2023-05-19T13:53:04.018Z,25.57
2023-05-19T13:55:32.206Z,25.78
2023-05-19T13:58:00.178Z,25.67
2023-05-19T14:00:27.896Z,25.81
2023-05-19T14:02:56.461Z,26.03
2023-05-19T14:05:24.275Z,26.46
2023-05-19T14:07:52.372Z,26.70
2023-05-19T14:10:20.611Z,26.26
2023-05-19T14:13:12.376Z,25.37
2023-05-19T14:15:38.293Z,23.69
2023-05-19T14:18:07.258Z,22.72
2023-05-19T14:20:36.236Z,23.92
2023-05-19T14:23:04.344Z,24.86
2023-05-19T14:25:32.630Z,25.21
2023-05-19T14:28:00.701Z,25.33
2023-05-19T14:30:29.129Z,25.65
2023-05-19T14:32:57.219Z,26.16
2023-05-19T14:35:25.454Z,26.12
2023-05-19T14:37:53.755Z,26.06
2023-05-19T14:40:21.552Z,26.27
2023-05-19T14:42:49.228Z,25.95
2023-05-19T14:45:16.939Z,25.03
2023-05-19T14:47:44.839Z,25.19
2023-05-19T14:50:12.964Z,25.55
2023-05-19T14:52:40.816Z,25.48
2023-05-19T14:55:09.635Z,25.74
2023-05-19T14:57:37.887Z,25.92
2023-05-19T15:00:07.068Z,26.13
2023-05-19T15:02:35.151Z,25.57
2023-05-19T15:05:03.916Z,25.65
2023-05-19T15:07:31.682Z,25.19
2023-05-19T15:09:59.538Z,24.51
2023-05-19T15:12:27.300Z,24.36
2023-05-19T15:14:55.248Z,24.38
2023-05-19T15:17:24.270Z,24.48
2023-05-19T15:19:52.052Z,24.69
2023-05-19T15:22:19.946Z,24.69
2023-05-19T15:24:47.726Z,24.18
2023-05-19T15:27:15.511Z,23.69
2023-05-19T15:29:43.230Z,23.05
2023-05-19T15:32:11.319Z,22.57
2023-05-19T15:34:39.567Z,22.30
2023-05-19T15:37:10.450Z,22.01
2023-05-19T15:39:38.438Z,21.83
2023-05-19T15:42:09.408Z,21.59
2023-05-19T15:44:37.600Z,21.48
2023-05-19T15:47:07.765Z,21.48
2023-05-19T15:49:35.758Z,21.38
2023-05-19T15:52:04.550Z,21.23
2023-05-19T15:54:32.584Z,21.11
2023-05-19T15:57:00.279Z,21.06
2023-05-19T15:59:27.985Z,20.93
2023-05-19T16:01:56.530Z,20.93
2023-05-19T16:04:24.595Z,21.08
2023-05-19T16:06:52.511Z,21.03
2023-05-19T16:09:20.303Z,20.87
2023-05-19T16:11:48.114Z,20.93
2023-05-19T16:14:16.118Z,20.96
2023-05-19T16:16:44.746Z,20.97
2023-05-19T16:19:12.766Z,20.90
2023-05-19T16:21:40.713Z,20.71
2023-05-19T16:24:08.630Z,20.64
2023-05-19T16:26:37.152Z,20.62
2023-05-19T16:29:04.918Z,20.64
2023-05-19T16:31:32.699Z,20.62
2023-05-19T16:34:00.581Z,20.59
2023-05-19T16:36:28.429Z,20.68
2023-05-19T16:38:56.276Z,20.47
2023-05-19T16:41:24.104Z,20.38
2023-05-19T16:43:51.815Z,20.38
2023-05-19T16:46:19.590Z,20.42
2023-05-19T16:48:47.643Z,20.29
2023-05-19T16:51:17.843Z,20.29
2023-05-19T16:53:45.546Z,20.34
2023-05-19T16:56:13.702Z,20.17
2023-05-19T16:58:41.585Z,20.11
2023-05-19T17:01:10.573Z,20.03
2023-05-19T17:03:38.372Z,20.04
2023-05-19T17:06:07.177Z,20.03
2023-05-19T17:08:35.019Z,19.91
2023-05-19T17:11:03.610Z,20.01
2023-05-19T17:13:36.692Z,19.91
2023-05-19T17:16:04.609Z,19.83
2023-05-19T17:18:32.396Z,19.89
2023-05-19T17:21:03.798Z,19.89
2023-05-19T17:23:32.385Z,19.74
2023-05-19T17:26:00.148Z,19.59
2023-05-19T17:28:27.995Z,19.67
2023-05-19T17:30:56.268Z,19.65
2023-05-19T17:33:24.309Z,19.52
2023-05-19T17:35:52.367Z,19.59
2023-05-19T17:38:20.844Z,19.50
2023-05-19T17:40:48.775Z,19.49
2023-05-19T17:43:17.137Z,19.33
2023-05-19T17:45:44.919Z,19.33
2023-05-19T17:48:12.763Z,19.36
2023-05-19T17:50:40.631Z,19.39
2023-05-19T17:53:08.757Z,19.22
2023-05-19T17:55:37.341Z,19.19
2023-05-19T17:58:07.169Z,19.18
2023-05-19T18:00:35.849Z,19.19
2023-05-19T18:03:06.497Z,19.16
2023-05-19T18:05:34.981Z,19.12
2023-05-19T18:08:07.161Z,19.10
2023-05-19T18:10:38.333Z,19.00
2023-05-19T18:13:08.774Z,18.97
2023-05-19T18:15:40.039Z,18.97
2023-05-19T18:18:11.143Z,18.92
2023-05-19T18:20:41.263Z,18.81
2023-05-19T18:23:08.950Z,18.75
2023-05-19T18:25:39.573Z,18.70
2023-05-19T18:28:08.106Z,18.63
2023-05-19T18:30:39.002Z,18.59
2023-05-19T18:33:07.307Z,18.63
2023-05-19T18:35:37.213Z,18.54
2023-05-19T18:38:04.969Z,18.49
2023-05-19T18:40:33.177Z,18.39
2023-05-19T18:43:01.317Z,18.30
2023-05-19T18:45:29.228Z,18.28
2023-05-19T18:47:57.505Z,18.17
2023-05-19T18:50:25.787Z,18.16
2023-05-19T18:52:53.739Z,18.10
2023-05-19T18:55:21.576Z,17.96
2023-05-19T18:57:49.397Z,17.74
2023-05-19T19:00:18.343Z,17.64
2023-05-19T19:02:46.550Z,17.61
2023-05-19T19:05:14.591Z,17.54
2023-05-19T19:07:44.410Z,17.54
2023-05-19T19:10:12.664Z,17.53
2023-05-19T19:12:40.477Z,17.41
2023-05-19T19:15:08.992Z,17.36
2023-05-19T19:17:37.929Z,17.31
2023-05-19T19:20:09.963Z,17.23
2023-05-19T19:22:38.379Z,17.16
2023-05-19T19:25:07.363Z,17.12
2023-05-19T19:27:35.904Z,17.00
2023-05-19T19:30:05.176Z,16.90
2023-05-19T19:32:33.498Z,16.79
2023-05-19T19:35:01.897Z,16.71
2023-05-19T19:37:29.645Z,16.62
2023-05-19T19:39:57.542Z,16.73
2023-05-19T19:42:25.724Z,16.73
2023-05-19T19:44:57.298Z,16.67
2023-05-19T19:47:26.549Z,16.58
2023-05-19T19:49:54.300Z,16.57
2023-05-19T19:52:26.100Z,16.41
2023-05-19T19:54:54.656Z,16.37
2023-05-19T19:57:22.876Z,16.35
2023-05-19T19:59:56.692Z,16.35
2023-05-19T20:02:24.668Z,16.40
2023-05-19T20:04:52.445Z,16.35
2023-05-19T20:07:21.036Z,16.34
2023-05-19T20:09:50.871Z,16.30
2023-05-19T20:12:18.656Z,16.28
2023-05-19T20:14:46.636Z,16.28
2023-05-19T20:17:14.375Z,16.25
2023-05-19T20:19:42.264Z,16.18
2023-05-19T20:22:10.258Z,16.13
2023-05-19T20:24:38.429Z,16.11
2023-05-19T20:27:07.398Z,16.06
2023-05-19T20:29:35.131Z,16.00
2023-05-19T20:32:03.341Z,15.92
2023-05-19T20:34:31.158Z,15.87
2023-05-19T20:36:59.050Z,15.79
2023-05-19T20:39:26.867Z,15.72
2023-05-19T20:41:54.549Z,15.69
2023-05-19T20:44:22.274Z,15.66
2023-05-19T20:46:51.150Z,15.63
2023-05-19T20:49:20.576Z,15.55
2023-05-19T20:51:48.425Z,15.55
2023-05-19T20:54:17.140Z,15.55
2023-05-19T20:56:45.367Z,15.51
2023-05-19T20:59:14.012Z,15.49
2023-05-19T21:01:41.947Z,15.41
2023-05-19T21:04:09.815Z,15.36
2023-05-19T21:06:38.438Z,15.28
2023-05-19T21:09:07.043Z,15.23
2023-05-19T21:11:35.948Z,15.30
2023-05-19T21:14:07.013Z,15.27
2023-05-19T21:16:39.293Z,15.23
2023-05-19T21:19:07.777Z,15.28
2023-05-19T21:21:38.989Z,15.24
2023-05-19T21:24:07.218Z,15.15
2023-05-19T21:26:35.053Z,15.14
2023-05-19T21:29:02.848Z,15.12
2023-05-19T21:31:31.259Z,15.10
2023-05-19T21:33:59.078Z,15.03
2023-05-19T21:36:27.236Z,14.94
2023-05-19T21:38:55.068Z,14.83
2023-05-19T21:41:22.888Z,14.76
2023-05-19T21:43:50.625Z,14.65
2023-05-19T21:46:18.490Z,14.60
2023-05-19T21:48:46.487Z,14.52
2023-05-19T21:51:14.335Z,14.50
2023-05-19T21:53:42.718Z,14.49
2023-05-19T21:56:10.616Z,14.49
2023-05-19T21:58:38.808Z,14.47
2023-05-19T22:01:07.009Z,14.55
2023-05-19T22:03:34.856Z,14.57
2023-05-19T22:06:02.693Z,14.55
2023-05-19T22:08:30.715Z,14.42
2023-05-19T22:10:58.487Z,14.53
2023-05-19T22:13:26.464Z,14.57
2023-05-19T22:15:54.561Z,14.60
2023-05-19T22:18:22.486Z,14.57
2023-05-19T22:20:50.199Z,14.49
2023-05-19T22:23:18.064Z,14.53
2023-05-19T22:25:45.874Z,14.57
2023-05-19T22:28:13.649Z,14.50
2023-05-19T22:30:42.529Z,14.46
2023-05-19T22:33:11.497Z,14.42
2023-05-19T22:35:39.293Z,14.39
2023-05-19T22:38:08.843Z,14.36
2023-05-19T22:40:38.818Z,14.28
2023-05-19T22:43:09.367Z,14.22
2023-05-19T22:45:39.987Z,14.24
2023-05-19T22:48:11.621Z,14.19
2023-05-19T22:50:39.514Z,14.15
2023-05-19T22:53:07.516Z,14.02
2023-05-19T22:55:36.150Z,14.07
2023-05-19T22:58:04.062Z,14.04
2023-05-19T23:00:32.080Z,14.02
2023-05-19T23:03:00.276Z,13.88
2023-05-19T23:05:28.071Z,13.85
2023-05-19T23:07:55.832Z,13.80
2023-05-19T23:10:23.510Z,13.71
2023-05-19T23:12:51.623Z,13.71
2023-05-19T23:15:19.309Z,13.66
2023-05-19T23:17:47.048Z,13.61
2023-05-19T23:20:14.901Z,13.60
2023-05-19T23:22:42.803Z,13.51
2023-05-19T23:25:11.331Z,13.50
2023-05-19T23:27:39.031Z,13.44
2023-05-19T23:30:07.479Z,13.38
2023-05-19T23:32:35.489Z,13.30
2023-05-19T23:35:11.536Z,13.23
2023-05-19T23:37:39.395Z,13.20
2023-05-19T23:40:08.443Z,13.24
2023-05-19T23:42:39.526Z,13.19
2023-05-19T23:45:07.914Z,13.19
2023-05-19T23:47:38.248Z,13.16
2023-05-19T23:50:06.506Z,13.16
2023-05-19T23:52:34.330Z,13.12
2023-05-19T23:55:03.632Z,13.09
2023-05-19T23:57:31.527Z,13.06
